sensor_id;sensor_type;location;lat;lon;timestamp;pressure;altitude;pressure_sealevel;temperature;humidity
61573;BME280;47465;43.094;12.434;2023-01-13T00:01:54;99339.28;;;2.32;100.00
61573;BME280;47465;43.094;12.434;2023-01-13T00:04:20;99344.56;;;2.35;100.00
61573;BME280;47465;43.094;12.434;2023-01-13T00:06:46;99352.56;;;2.43;100.00
61573;BME280;47465;43.094;12.434;2023-01-13T00:09:13;99363.16;;;2.51;100.00
61573;BME280;47465;43.094;12.434;2023-01-13T00:11:39;99362.44;;;2.59;100.00
61573;BME280;47465;43.094;12.434;2023-01-13T00:14:05;99358.25;;;2.74;100.00
61573;BME280;47465;43.094;12.434;2023-01-13T00:16:31;99354.88;;;2.82;100.00
61573;BME280;47465;43.094;12.434;2023-01-13T00:18:57;99361.97;;;2.90;100.00
61573;BME280;47465;43.094;12.434;2023-01-13T00:21:23;99352.34;;;2.92;100.00
61573;BME280;47465;43.094;12.434;2023-01-13T00:23:52;99358.66;;;3.04;100.00
61573;BME280;47465;43.094;12.434;2023-01-13T00:26:21;99317.38;;;2.94;100.00
61573;BME280;47465;43.094;12.434;2023-01-13T00:28:47;99329.91;;;3.18;100.00
61573;BME280;47465;43.094;12.434;2023-01-13T00:31:15;99318.56;;;3.22;100.00
61573;BME280;47465;43.094;12.434;2023-01-13T00:33:41;99325.66;;;3.28;100.00
61573;BME280;47465;43.094;12.434;2023-01-13T00:36:09;99312.50;;;3.29;100.00
61573;BME280;47465;43.094;12.434;2023-01-13T00:38:37;99325.75;;;3.40;100.00
61573;BME280;47465;43.094;12.434;2023-01-13T00:41:05;99336.25;;;3.37;100.00
61573;BME280;47465;43.094;12.434;2023-01-13T00:43:33;99318.53;;;3.21;100.00
61573;BME280;47465;43.094;12.434;2023-01-13T00:46:00;99329.03;;;3.18;100.00
61573;BME280;47465;43.094;12.434;2023-01-13T00:48:27;99333.22;;;3.02;100.00
61573;BME280;47465;43.094;12.434;2023-01-13T00:50:57;99337.59;;;3.01;100.00
61573;BME280;47465;43.094;12.434;2023-01-13T00:53:23;99323.59;;;3.02;100.00
61573;BME280;47465;43.094;12.434;2023-01-13T00:55:58;99312.22;;;3.02;100.00
61573;BME280;47465;43.094;12.434;2023-01-13T00:58:27;99296.41;;;3.00;100.00
61573;BME280;47465;43.094;12.434;2023-01-13T01:03:54;99297.50;;;3.21;100.00
61573;BME280;47465;43.094;12.434;2023-01-13T01:06:21;99303.63;;;3.17;100.00
61573;BME280;47465;43.094;12.434;2023-01-13T01:08:48;99310.66;;;3.21;100.00
61573;BME280;47465;43.094;12.434;2023-01-13T01:11:16;99338.00;;;3.38;100.00
61573;BME280;47465;43.094;12.434;2023-01-13T01:13:43;99346.31;;;3.78;100.00
61573;BME280;47465;43.094;12.434;2023-01-13T01:16:13;99303.22;;;3.64;100.00
61573;BME280;47465;43.094;12.434;2023-01-13T01:18:39;99341.97;;;3.80;100.00
61573;BME280;47465;43.094;12.434;2023-01-13T01:21:06;99311.03;;;3.56;100.00
61573;BME280;47465;43.094;12.434;2023-01-13T01:23:33;99327.78;;;3.66;100.00
61573;BME280;47465;43.094;12.434;2023-01-13T01:26:00;99350.66;;;3.73;100.00
61573;BME280;47465;43.094;12.434;2023-01-13T01:28:26;99321.56;;;3.56;100.00
61573;BME280;47465;43.094;12.434;2023-01-13T01:30:52;99353.22;;;3.68;100.00
61573;BME280;47465;43.094;12.434;2023-01-13T01:33:21;99355.91;;;3.72;100.00
61573;BME280;47465;43.094;12.434;2023-01-13T01:35:47;99337.41;;;3.64;100.00
61573;BME280;47465;43.094;12.434;2023-01-13T01:38:12;99360.28;;;3.73;100.00
61573;BME280;47465;43.094;12.434;2023-01-13T01:40:38;99338.19;;;3.52;100.00
61573;BME280;47465;43.094;12.434;2023-01-13T01:43:11;99323.22;;;3.45;100.00
61573;BME280;47465;43.094;12.434;2023-01-13T01:46:13;99325.78;;;3.39;100.00
61573;BME280;47465;43.094;12.434;2023-01-13T01:48:40;99293.94;;;3.14;100.00
61573;BME280;47465;43.094;12.434;2023-01-13T01:51:09;99307.97;;;3.16;100.00
61573;BME280;47465;43.094;12.434;2023-01-13T01:53:37;99287.66;;;3.00;100.00
61573;BME280;47465;43.094;12.434;2023-01-13T01:56:04;99299.06;;;3.00;100.00
61573;BME280;47465;43.094;12.434;2023-01-13T01:58:37;99289.19;;;2.81;100.00
61573;BME280;47465;43.094;12.434;2023-01-13T02:01:06;99287.41;;;2.78;100.00
61573;BME280;47465;43.094;12.434;2023-01-13T02:03:36;99284.66;;;2.71;100.00
61573;BME280;47465;43.094;12.434;2023-01-13T02:06:05;99299.59;;;2.72;100.00
61573;BME280;47465;43.094;12.434;2023-01-13T02:08:31;99306.53;;;2.68;100.00
61573;BME280;47465;43.094;12.434;2023-01-13T02:10:57;99292.22;;;2.46;100.00
61573;BME280;47465;43.094;12.434;2023-01-13T02:13:23;99280.56;;;2.24;100.00
61573;BME280;47465;43.094;12.434;2023-01-13T02:15:54;99299.75;;;2.23;100.00
61573;BME280;47465;43.094;12.434;2023-01-13T02:18:30;99326.13;;;2.31;100.00
61573;BME280;47465;43.094;12.434;2023-01-13T02:27:55;99305.66;;;2.08;100.00
61573;BME280;47465;43.094;12.434;2023-01-13T02:30:41;99282.72;;;1.95;100.00
61573;BME280;47465;43.094;12.434;2023-01-13T02:33:59;99280.91;;;1.91;100.00
61573;BME280;47465;43.094;12.434;2023-01-13T02:36:30;99301.13;;;1.96;100.00
61573;BME280;47465;43.094;12.434;2023-01-13T02:39:03;99280.00;;;1.87;100.00
61573;BME280;47465;43.094;12.434;2023-01-13T02:41:37;99295.84;;;1.95;100.00
61573;BME280;47465;43.094;12.434;2023-01-13T02:44:51;99288.06;;;2.01;100.00
61573;BME280;47465;43.094;12.434;2023-01-13T02:47:20;99261.75;;;1.95;100.00
61573;BME280;47465;43.094;12.434;2023-01-13T02:49:49;99279.31;;;2.00;100.00
61573;BME280;47465;43.094;12.434;2023-01-13T02:52:21;99311.91;;;2.15;100.00
61573;BME280;47465;43.094;12.434;2023-01-13T02:54:53;99296.22;;;2.18;100.00
61573;BME280;47465;43.094;12.434;2023-01-13T02:57:21;99290.31;;;2.33;100.00
61573;BME280;47465;43.094;12.434;2023-01-13T02:59:51;99283.44;;;2.41;100.00
61573;BME280;47465;43.094;12.434;2023-01-13T03:02:20;99294.94;;;2.54;100.00
61573;BME280;47465;43.094;12.434;2023-01-13T03:04:52;99289.69;;;2.54;100.00
61573;BME280;47465;43.094;12.434;2023-01-13T03:07:53;99279.34;;;2.64;100.00
61573;BME280;47465;43.094;12.434;2023-01-13T03:10:31;99267.19;;;2.73;100.00
61573;BME280;47465;43.094;12.434;2023-01-13T03:13:06;99273.41;;;2.79;100.00
61573;BME280;47465;43.094;12.434;2023-01-13T03:15:44;99247.91;;;2.69;100.00
61573;BME280;47465;43.094;12.434;2023-01-13T03:18:18;99260.28;;;2.79;100.00
61573;BME280;47465;43.094;12.434;2023-01-13T03:20:58;99261.16;;;2.81;100.00
61573;BME280;47465;43.094;12.434;2023-01-13T03:23:32;99278.75;;;2.87;100.00
61573;BME280;47465;43.094;12.434;2023-01-13T03:26:04;99277.91;;;2.90;100.00
61573;BME280;47465;43.094;12.434;2023-01-13T03:28:37;99291.16;;;2.97;100.00
61573;BME280;47465;43.094;12.434;2023-01-13T03:31:10;99263.91;;;2.89;100.00
61573;BME280;47465;43.094;12.434;2023-01-13T03:33:40;99254.25;;;2.90;100.00
61573;BME280;47465;43.094;12.434;2023-01-13T03:36:11;99255.03;;;2.78;100.00
61573;BME280;47465;43.094;12.434;2023-01-13T03:38:40;99261.75;;;2.57;100.00
61573;BME280;47465;43.094;12.434;2023-01-13T03:41:10;99276.75;;;2.66;100.00
61573;BME280;47465;43.094;12.434;2023-01-13T03:43:42;99243.44;;;2.62;100.00
61573;BME280;47465;43.094;12.434;2023-01-13T03:46:46;99230.34;;;2.66;100.00
61573;BME280;47465;43.094;12.434;2023-01-13T03:49:18;99230.44;;;2.73;100.00
61573;BME280;47465;43.094;12.434;2023-01-13T03:51:45;99256.78;;;2.82;100.00
61573;BME280;47465;43.094;12.434;2023-01-13T03:54:14;99213.72;;;2.66;100.00
61573;BME280;47465;43.094;12.434;2023-01-13T03:56:44;99259.38;;;2.77;100.00
61573;BME280;47465;43.094;12.434;2023-01-13T03:59:16;99233.88;;;2.68;100.00
61573;BME280;47465;43.094;12.434;2023-01-13T04:01:48;99242.72;;;2.77;100.00
61573;BME280;47465;43.094;12.434;2023-01-13T04:04:18;99261.28;;;2.89;100.00
61573;BME280;47465;43.094;12.434;2023-01-13T04:06:51;99241.09;;;2.88;100.00
61573;BME280;47465;43.094;12.434;2023-01-13T04:09:22;99249.91;;;2.92;100.00
61573;BME280;47465;43.094;12.434;2023-01-13T04:11:53;99238.53;;;2.93;100.00
61573;BME280;47465;43.094;12.434;2023-01-13T04:14:21;99245.69;;;3.07;100.00
61573;BME280;47465;43.094;12.434;2023-01-13T04:16:50;99248.41;;;3.14;100.00
61573;BME280;47465;43.094;12.434;2023-01-13T04:19:17;99237.91;;;3.15;100.00
61573;BME280;47465;43.094;12.434;2023-01-13T04:21:43;99255.59;;;3.30;100.00
61573;BME280;47465;43.094;12.434;2023-01-13T04:24:09;99229.28;;;3.30;100.00
61573;BME280;47465;43.094;12.434;2023-01-13T04:26:34;99238.97;;;3.36;100.00
61573;BME280;47465;43.094;12.434;2023-01-13T04:29:00;99260.09;;;3.46;100.00
61573;BME280;47465;43.094;12.434;2023-01-13T04:31:26;99252.22;;;3.45;100.00
61573;BME280;47465;43.094;12.434;2023-01-13T04:33:54;99223.97;;;3.24;100.00
61573;BME280;47465;43.094;12.434;2023-01-13T04:36:19;99229.22;;;3.22;100.00
61573;BME280;47465;43.094;12.434;2023-01-13T04:38:49;99244.22;;;3.36;100.00
61573;BME280;47465;43.094;12.434;2023-01-13T04:41:16;99250.38;;;3.36;100.00
61573;BME280;47465;43.094;12.434;2023-01-13T04:43:41;99254.69;;;3.31;100.00
61573;BME280;47465;43.094;12.434;2023-01-13T04:46:07;99210.72;;;3.12;100.00
61573;BME280;47465;43.094;12.434;2023-01-13T04:48:33;99211.66;;;3.20;100.00
61573;BME280;47465;43.094;12.434;2023-01-13T04:51:00;99209.19;;;3.38;100.00
61573;BME280;47465;43.094;12.434;2023-01-13T04:53:26;99225.03;;;3.43;100.00
61573;BME280;47465;43.094;12.434;2023-01-13T04:55:52;99234.63;;;3.36;100.00
61573;BME280;47465;43.094;12.434;2023-01-13T04:58:18;99246.06;;;3.44;100.00
61573;BME280;47465;43.094;12.434;2023-01-13T05:00:44;99218.78;;;3.32;100.00
61573;BME280;47465;43.094;12.434;2023-01-13T05:03:09;99225.88;;;3.40;100.00
61573;BME280;47465;43.094;12.434;2023-01-13T05:05:35;99210.94;;;3.38;100.00
61573;BME280;47465;43.094;12.434;2023-01-13T05:08:04;99181.94;;;3.25;100.00
61573;BME280;47465;43.094;12.434;2023-01-13T05:10:30;99214.41;;;3.34;100.00
61573;BME280;47465;43.094;12.434;2023-01-13T05:12:55;99213.50;;;3.28;100.00
61573;BME280;47465;43.094;12.434;2023-01-13T05:15:54;99213.41;;;3.18;100.00
61573;BME280;47465;43.094;12.434;2023-01-13T05:18:55;99240.56;;;3.20;100.00
61573;BME280;47465;43.094;12.434;2023-01-13T05:21:21;99244.78;;;3.05;100.00
61573;BME280;47465;43.094;12.434;2023-01-13T05:24:21;99242.97;;;2.98;100.00
61573;BME280;47465;43.094;12.434;2023-01-13T05:27:20;99250.97;;;3.09;100.00
61573;BME280;47465;43.094;12.434;2023-01-13T05:29:46;99256.22;;;3.06;100.00
61573;BME280;47465;43.094;12.434;2023-01-13T05:32:12;99266.78;;;3.11;100.00
61573;BME280;47465;43.094;12.434;2023-01-13T05:34:38;99248.25;;;3.01;100.00
61573;BME280;47465;43.094;12.434;2023-01-13T05:37:04;99250.88;;;3.01;100.00
61573;BME280;47465;43.094;12.434;2023-01-13T05:39:32;99254.41;;;3.03;100.00
61573;BME280;47465;43.094;12.434;2023-01-13T05:42:18;99243.84;;;2.99;100.00
61573;BME280;47465;43.094;12.434;2023-01-13T05:45:35;99257.00;;;3.00;100.00
61573;BME280;47465;43.094;12.434;2023-01-13T05:48:01;99257.94;;;3.05;100.00
61573;BME280;47465;43.094;12.434;2023-01-13T05:50:27;99250.88;;;3.00;100.00
61573;BME280;47465;43.094;12.434;2023-01-13T05:52:53;99264.03;;;3.03;100.00
61573;BME280;47465;43.094;12.434;2023-01-13T05:55:18;99252.72;;;3.07;100.00
61573;BME280;47465;43.094;12.434;2023-01-13T05:57:44;99242.94;;;2.94;100.00
61573;BME280;47465;43.094;12.434;2023-01-13T06:00:11;99246.44;;;2.94;100.00
61573;BME280;47465;43.094;12.434;2023-01-13T06:02:38;99250.00;;;2.98;100.00
61573;BME280;47465;43.094;12.434;2023-01-13T06:05:05;99277.25;;;3.09;100.00
61573;BME280;47465;43.094;12.434;2023-01-13T06:07:30;99253.38;;;2.91;100.00
61573;BME280;47465;43.094;12.434;2023-01-13T06:09:56;99270.84;;;2.85;100.00
61573;BME280;47465;43.094;12.434;2023-01-13T06:12:22;99280.53;;;2.90;100.00
61573;BME280;47465;43.094;12.434;2023-01-13T06:14:48;99257.66;;;2.78;100.00
61573;BME280;47465;43.094;12.434;2023-01-13T06:17:14;99256.78;;;2.80;100.00
61573;BME280;47465;43.094;12.434;2023-01-13T06:19:42;99248.00;;;2.77;100.00
61573;BME280;47465;43.094;12.434;2023-01-13T06:22:12;99259.34;;;2.74;100.00
61573;BME280;47465;43.094;12.434;2023-01-13T06:24:40;99285.81;;;2.91;100.00
61573;BME280;47465;43.094;12.434;2023-01-13T06:27:08;99260.19;;;2.72;100.00
61573;BME280;47465;43.094;12.434;2023-01-13T06:29:34;99281.34;;;2.85;100.00
61573;BME280;47465;43.094;12.434;2023-01-13T06:32:03;99286.66;;;2.88;100.00
61573;BME280;47465;43.094;12.434;2023-01-13T06:34:30;99279.66;;;2.91;100.00
61573;BME280;47465;43.094;12.434;2023-01-13T06:36:58;99275.25;;;2.88;100.00
61573;BME280;47465;43.094;12.434;2023-01-13T06:39:26;99247.06;;;2.73;100.00
61573;BME280;47465;43.094;12.434;2023-01-13T06:41:56;99241.91;;;2.81;100.00
61573;BME280;47465;43.094;12.434;2023-01-13T06:44:57;99257.00;;;2.99;100.00
61573;BME280;47465;43.094;12.434;2023-01-13T06:47:23;99236.56;;;2.75;100.00
61573;BME280;47465;43.094;12.434;2023-01-13T06:49:49;99270.84;;;2.85;100.00
61573;BME280;47465;43.094;12.434;2023-01-13T06:52:15;99250.53;;;2.71;100.00
61573;BME280;47465;43.094;12.434;2023-01-13T06:54:41;99264.66;;;2.82;100.00
61573;BME280;47465;43.094;12.434;2023-01-13T06:57:06;99264.78;;;2.90;100.00
61573;BME280;47465;43.094;12.434;2023-01-13T06:59:32;99254.25;;;2.88;100.00
61573;BME280;47465;43.094;12.434;2023-01-13T07:02:01;99265.72;;;2.96;100.00
61573;BME280;47465;43.094;12.434;2023-01-13T07:04:27;99278.06;;;3.03;100.00
61573;BME280;47465;43.094;12.434;2023-01-13T07:06:53;99262.25;;;2.97;100.00
61573;BME280;47465;43.094;12.434;2023-01-13T07:09:19;99256.13;;;2.98;100.00
61573;BME280;47465;43.094;12.434;2023-01-13T07:11:45;99270.28;;;3.11;100.00
61573;BME280;47465;43.094;12.434;2023-01-13T07:14:11;99267.66;;;3.14;100.00
61573;BME280;47465;43.094;12.434;2023-01-13T07:17:11;99266.84;;;3.17;100.00
61573;BME280;47465;43.094;12.434;2023-01-13T07:19:37;99260.59;;;3.07;100.00
61573;BME280;47465;43.094;12.434;2023-01-13T07:22:02;99272.13;;;3.21;100.00
61573;BME280;47465;43.094;12.434;2023-01-13T07:24:28;99266.00;;;3.22;100.00
61573;BME280;47465;43.094;12.434;2023-01-13T07:26:54;99247.63;;;3.24;100.00
61573;BME280;47465;43.094;12.434;2023-01-13T07:29:20;99259.16;;;3.40;100.00
61573;BME280;47465;43.094;12.434;2023-01-13T07:31:46;99229.28;;;3.30;100.00
61573;BME280;47465;43.094;12.434;2023-01-13T07:34:14;99257.53;;;3.53;100.00
61573;BME280;47465;43.094;12.434;2023-01-13T07:36:39;99268.13;;;3.62;100.00
61573;BME280;47465;43.094;12.434;2023-01-13T07:39:05;99259.38;;;3.61;100.00
61573;BME280;47465;43.094;12.434;2023-01-13T07:41:32;99258.56;;;3.67;100.00
61573;BME280;47465;43.094;12.434;2023-01-13T07:44:39;99271.03;;;3.94;100.00
61573;BME280;47465;43.094;12.434;2023-01-13T07:47:05;99263.16;;;3.93;100.00
61573;BME280;47465;43.094;12.434;2023-01-13T07:49:32;99265.75;;;3.94;100.00
61573;BME280;47465;43.094;12.434;2023-01-13T07:51:58;99274.59;;;4.02;100.00
61573;BME280;47465;43.094;12.434;2023-01-13T07:54:24;99286.09;;;4.12;100.00
61573;BME280;47465;43.094;12.434;2023-01-13T07:56:50;99286.09;;;4.15;100.00
61573;BME280;47465;43.094;12.434;2023-01-13T07:59:16;99273.78;;;4.14;100.00
61573;BME280;47465;43.094;12.434;2023-01-13T08:01:43;99282.63;;;4.19;100.00
61573;BME280;47465;43.094;12.434;2023-01-13T08:04:09;99281.75;;;4.19;100.00
61573;BME280;47465;43.094;12.434;2023-01-13T08:06:35;99296.69;;;4.24;100.00
61573;BME280;47465;43.094;12.434;2023-01-13T08:09:01;99289.59;;;4.16;100.00
61573;BME280;47465;43.094;12.434;2023-01-13T08:11:27;99312.47;;;4.21;100.00
61573;BME280;47465;43.094;12.434;2023-01-13T08:13:54;99315.13;;;4.24;100.00
61573;BME280;47465;43.094;12.434;2023-01-13T08:16:20;99314.25;;;4.25;100.00
61573;BME280;47465;43.094;12.434;2023-01-13T08:18:47;99315.97;;;4.22;100.00
61573;BME280;47465;43.094;12.434;2023-01-13T08:21:13;99319.50;;;4.27;100.00
61573;BME280;47465;43.094;12.434;2023-01-13T08:23:40;99325.69;;;4.33;100.00
61573;BME280;47465;43.094;12.434;2023-01-13T08:26:08;99325.78;;;4.44;100.00
61573;BME280;47465;43.094;12.434;2023-01-13T08:28:35;99309.13;;;4.47;100.00
61573;BME280;47465;43.094;12.434;2023-01-13T08:31:02;99315.31;;;4.52;100.00
61573;BME280;47465;43.094;12.434;2023-01-13T08:33:28;99313.59;;;4.62;100.00
61573;BME280;47465;43.094;12.434;2023-01-13T08:35:56;99303.09;;;4.66;100.00
61573;BME280;47465;43.094;12.434;2023-01-13T08:38:22;99320.72;;;4.80;100.00
61573;BME280;47465;43.094;12.434;2023-01-13T08:40:50;99309.28;;;4.79;100.00
61573;BME280;47465;43.094;12.434;2023-01-13T08:43:16;99334.84;;;4.99;100.00
61573;BME280;47465;43.094;12.434;2023-01-13T08:45:42;99330.44;;;4.96;100.00
61573;BME280;47465;43.094;12.434;2023-01-13T08:48:08;99326.13;;;5.06;100.00
61573;BME280;47465;43.094;12.434;2023-01-13T08:51:08;99318.28;;;5.26;100.00
61573;BME280;47465;43.094;12.434;2023-01-13T08:53:34;99331.53;;;5.47;100.00
61573;BME280;47465;43.094;12.434;2023-01-13T08:56:00;99306.00;;;5.48;100.00
61573;BME280;47465;43.094;12.434;2023-01-13T08:58:26;99311.31;;;5.65;100.00
61573;BME280;47465;43.094;12.434;2023-01-13T09:00:52;99306.06;;;5.65;100.00
61573;BME280;47465;43.094;12.434;2023-01-13T09:03:18;99317.47;;;5.70;100.00
61573;BME280;47465;43.094;12.434;2023-01-13T09:05:44;99320.16;;;5.88;100.00
61573;BME280;47465;43.094;12.434;2023-01-13T09:08:11;99332.50;;;6.11;100.00
61573;BME280;47465;43.094;12.434;2023-01-13T09:10:37;99321.94;;;6.05;96.91
61573;BME280;47465;43.094;12.434;2023-01-13T09:13:04;99328.09;;;6.17;98.00
61573;BME280;47465;43.094;12.434;2023-01-13T09:15:38;99322.81;;;6.24;96.62
61573;BME280;47465;43.094;12.434;2023-01-13T09:18:04;99313.13;;;6.30;95.88
61573;BME280;47465;43.094;12.434;2023-01-13T09:20:30;99318.41;;;6.33;95.48
61573;BME280;47465;43.094;12.434;2023-01-13T09:22:56;99320.13;;;6.48;95.47
61573;BME280;47465;43.094;12.434;2023-01-13T09:25:23;99314.88;;;6.45;94.25
61573;BME280;47465;43.094;12.434;2023-01-13T09:27:49;99313.97;;;6.62;92.88
61573;BME280;47465;43.094;12.434;2023-01-13T09:30:15;99328.84;;;6.90;94.16
61573;BME280;47465;43.094;12.434;2023-01-13T09:32:41;99324.41;;;7.03;92.50
61573;BME280;47465;43.094;12.434;2023-01-13T09:35:08;99345.56;;;7.03;93.25
61573;BME280;47465;43.094;12.434;2023-01-13T09:37:35;99325.31;;;7.01;92.51
61573;BME280;47465;43.094;12.434;2023-01-13T09:40:04;99340.25;;;7.08;92.32
61573;BME280;47465;43.094;12.434;2023-01-13T09:42:40;99326.16;;;7.07;91.72
61573;BME280;47465;43.094;12.434;2023-01-13T09:45:46;99315.66;;;6.86;91.39
61573;BME280;47465;43.094;12.434;2023-01-13T09:48:18;99327.97;;;6.88;92.55
61573;BME280;47465;43.094;12.434;2023-01-13T09:50:53;99320.94;;;6.92;91.67
61573;BME280;47465;43.094;12.434;2023-01-13T09:53:27;99317.31;;;7.10;88.78
61573;BME280;47465;43.094;12.434;2023-01-13T09:55:54;99300.50;;;7.22;89.86
61573;BME280;47465;43.094;12.434;2023-01-13T09:58:20;99296.88;;;7.41;89.10
61573;BME280;47465;43.094;12.434;2023-01-13T10:00:56;99282.78;;;7.42;89.33
61573;BME280;47465;43.094;12.434;2023-01-13T10:03:25;99296.75;;;7.61;88.87
61573;BME280;47465;43.094;12.434;2023-01-13T10:06:00;99275.59;;;7.56;89.20
61573;BME280;47465;43.094;12.434;2023-01-13T10:08:31;99279.88;;;7.77;88.76
61573;BME280;47465;43.094;12.434;2023-01-13T10:10:59;99270.09;;;7.84;86.82
61573;BME280;47465;43.094;12.434;2023-01-13T10:13:27;99261.25;;;7.88;86.91
61573;BME280;47465;43.094;12.434;2023-01-13T10:16:23;99270.84;;;8.05;85.16
61573;BME280;47465;43.094;12.434;2023-01-13T10:19:02;99265.50;;;8.08;84.77
61573;BME280;47465;43.094;12.434;2023-01-13T10:21:42;99275.19;;;8.10;84.54
61573;BME280;47465;43.094;12.434;2023-01-13T10:24:21;99254.94;;;8.05;83.14
61573;BME280;47465;43.094;12.434;2023-01-13T10:26:56;99263.84;;;7.96;83.76
61573;BME280;47465;43.094;12.434;2023-01-13T10:29:26;99253.31;;;7.88;84.34
61573;BME280;47465;43.094;12.434;2023-01-13T10:31:56;99254.13;;;7.93;84.88
61573;BME280;47465;43.094;12.434;2023-01-13T10:34:25;99256.00;;;7.82;81.92
61573;BME280;47465;43.094;12.434;2023-01-13T10:36:57;99246.47;;;7.59;82.98
61573;BME280;47465;43.094;12.434;2023-01-13T10:40:00;99254.34;;;7.70;84.48
61573;BME280;47465;43.094;12.434;2023-01-13T10:42:26;99252.53;;;7.74;84.99
61573;BME280;47465;43.094;12.434;2023-01-13T10:44:53;99251.63;;;7.81;84.29
61573;BME280;47465;43.094;12.434;2023-01-13T10:47:25;99243.63;;;7.84;82.06
61573;BME280;47465;43.094;12.434;2023-01-13T10:50:16;99241.91;;;7.81;81.71
61573;BME280;47465;43.094;12.434;2023-01-13T10:52:56;99234.13;;;7.61;84.99
61573;BME280;47465;43.094;12.434;2023-01-13T10:55:26;99229.69;;;7.64;85.84
61573;BME280;47465;43.094;12.434;2023-01-13T10:57:55;99217.34;;;7.64;86.27
61573;BME280;47465;43.094;12.434;2023-01-13T11:00:29;99219.97;;;7.66;86.24
61573;BME280;47465;43.094;12.434;2023-01-13T11:03:12;99202.38;;;7.60;86.90
61573;BME280;47465;43.094;12.434;2023-01-13T11:05:39;99213.84;;;7.57;88.40
61573;BME280;47465;43.094;12.434;2023-01-13T11:08:15;99207.63;;;7.66;89.23
61573;BME280;47465;43.094;12.434;2023-01-13T11:10:46;99196.97;;;7.69;90.00
61573;BME280;47465;43.094;12.434;2023-01-13T11:13:15;99187.31;;;7.68;89.36
61573;BME280;47465;43.094;12.434;2023-01-13T11:15:49;99192.63;;;7.64;89.59
61573;BME280;47465;43.094;12.434;2023-01-13T11:18:25;99197.97;;;7.57;90.33
61573;BME280;47465;43.094;12.434;2023-01-13T11:20:54;99169.81;;;7.46;90.27
61573;BME280;47465;43.094;12.434;2023-01-13T11:23:28;99167.97;;;7.58;90.19
61573;BME280;47465;43.094;12.434;2023-01-13T11:26:00;99170.47;;;7.74;89.34
61573;BME280;47465;43.094;12.434;2023-01-13T11:28:35;99176.56;;;7.85;88.99
61573;BME280;47465;43.094;12.434;2023-01-13T11:31:09;99175.59;;;7.92;89.16
61573;BME280;47465;43.094;12.434;2023-01-13T11:33:40;99170.16;;;8.08;89.44
61573;BME280;47465;43.094;12.434;2023-01-13T11:36:11;99143.59;;;8.12;88.06
61573;BME280;47465;43.094;12.434;2023-01-13T11:38:42;99151.44;;;8.23;88.40
61573;BME280;47465;43.094;12.434;2023-01-13T11:41:19;99148.72;;;8.28;87.03
61573;BME280;47465;43.094;12.434;2023-01-13T11:43:50;99145.22;;;8.26;87.30
61573;BME280;47465;43.094;12.434;2023-01-13T11:46:18;99155.69;;;8.35;87.62
61573;BME280;47465;43.094;12.434;2023-01-13T11:48:45;99143.19;;;8.49;87.37
61573;BME280;47465;43.094;12.434;2023-01-13T11:51:20;99137.69;;;8.63;86.07
61573;BME280;47465;43.094;12.434;2023-01-13T11:54:03;99131.25;;;8.84;85.58
61573;BME280;47465;43.094;12.434;2023-01-13T11:56:47;99122.19;;;9.00;84.13
61573;BME280;47465;43.094;12.434;2023-01-13T11:59:44;99130.59;;;9.25;80.90
61573;BME280;47465;43.094;12.434;2023-01-13T12:02:23;99118.09;;;9.34;80.01
61573;BME280;47465;43.094;12.434;2023-01-13T12:04:58;99123.25;;;9.43;79.81
61573;BME280;47465;43.094;12.434;2023-01-13T12:07:37;99126.81;;;9.42;78.09
61573;BME280;47465;43.094;12.434;2023-01-13T12:10:08;99129.41;;;9.46;79.29
61573;BME280;47465;43.094;12.434;2023-01-13T12:12:46;99125.81;;;9.49;80.93
61573;BME280;47465;43.094;12.434;2023-01-13T12:18:29;99113.47;;;9.45;80.58
61573;BME280;47465;43.094;12.434;2023-01-13T12:21:08;99100.38;;;9.34;81.19
61573;BME280;47465;43.094;12.434;2023-01-13T12:23:41;99103.88;;;9.38;81.16
61573;BME280;47465;43.094;12.434;2023-01-13T12:26:11;99109.19;;;9.36;81.46
61573;BME280;47465;43.094;12.434;2023-01-13T12:28:44;99096.19;;;9.21;82.77
61573;BME280;47465;43.094;12.434;2023-01-13T12:31:12;99106.97;;;9.10;82.82
61573;BME280;47465;43.094;12.434;2023-01-13T12:33:47;99106.19;;;9.05;82.67
61573;BME280;47465;43.094;12.434;2023-01-13T12:36:23;99114.22;;;8.99;83.07
61573;BME280;47465;43.094;12.434;2023-01-13T12:38:55;99103.63;;;8.99;83.55
61573;BME280;47465;43.094;12.434;2023-01-13T12:41:32;99082.47;;;8.94;83.61
61573;BME280;47465;43.094;12.434;2023-01-13T12:44:03;99105.34;;;9.00;83.72
61573;BME280;47465;43.094;12.434;2023-01-13T12:47:32;99081.84;;;8.78;85.20
61573;BME280;47465;43.094;12.434;2023-01-13T12:50:39;99109.75;;;9.02;85.72
61573;BME280;47465;43.094;12.434;2023-01-13T12:53:31;99103.38;;;9.14;85.29
61573;BME280;47465;43.094;12.434;2023-01-13T12:59:32;99094.38;;;9.24;83.83
61573;BME280;47465;43.094;12.434;2023-01-13T13:02:29;99092.66;;;9.22;85.80
61573;BME280;47465;43.094;12.434;2023-01-13T13:04:56;99059.38;;;9.01;86.76
61573;BME280;47465;43.094;12.434;2023-01-13T13:07:32;99055.88;;;8.99;87.24
61573;BME280;47465;43.094;12.434;2023-01-13T13:10:06;99050.47;;;9.05;86.64
61573;BME280;47465;43.094;12.434;2023-01-13T13:12:54;99052.94;;;9.17;84.93
61573;BME280;47465;43.094;12.434;2023-01-13T13:16:34;99054.56;;;9.26;85.69
61573;BME280;47465;43.094;12.434;2023-01-13T13:28:16;99043.50;;;9.49;86.26
61573;BME280;47465;43.094;12.434;2023-01-13T13:30:52;99023.38;;;9.37;83.28
61573;BME280;47465;43.094;12.434;2023-01-13T13:33:46;99056.75;;;9.52;83.77
61573;BME280;47465;43.094;12.434;2023-01-13T13:39:20;99050.13;;;9.25;87.07
61573;BME280;47465;43.094;12.434;2023-01-13T13:42:27;99045.84;;;9.16;88.50
61573;BME280;47465;43.094;12.434;2023-01-13T13:45:29;99063.38;;;9.27;88.30
61573;BME280;47465;43.094;12.434;2023-01-13T13:48:31;99049.38;;;9.17;88.30